Time,TemperatureF,DewpointF,PressureIn,WindDirection,WindDirectionDegrees,WindSpeedMPH,WindSpeedGustMPH,Humidity,HourlyPrecipIn,Conditions,Clouds,dailyrainin,SoftwareType,DateUTC
2013-05-19 00:04:00,39.9,34.5,30.22,NW,304,0.0,1.0,81,0.00,,,0.00,Wunderground v.1.15,2013-05-19 07:04:00,
2013-05-19 00:10:00,39.7,34.7,30.22,NW,304,0.0,1.0,82,0.00,,,0.00,Wunderground v.1.15,2013-05-19 07:10:00,
2013-05-19 00:16:00,39.7,35.0,30.23,NW,304,0.0,0.0,83,0.00,,,0.00,Wunderground v.1.15,2013-05-19 07:16:00,
2013-05-19 00:22:00,39.5,34.5,30.23,NW,304,0.0,0.0,82,0.00,,,0.00,Wunderground v.1.15,2013-05-19 07:22:00,
2013-05-19 00:28:00,39.0,34.3,30.23,NW,304,0.0,0.0,83,0.00,,,0.00,Wunderground v.1.15,2013-05-19 07:28:00,
2013-05-19 00:34:00,38.5,34.1,30.23,NW,304,0.0,1.0,84,0.00,,,0.00,Wunderground v.1.15,2013-05-19 07:34:00,
2013-05-19 00:40:00,38.1,34.0,30.23,NW,304,0.0,1.0,85,0.00,,,0.00,Wunderground v.1.15,2013-05-19 07:40:00,
2013-05-19 00:45:00,37.9,33.8,30.23,NW,304,0.0,0.0,85,0.00,,,0.00,Wunderground v.1.15,2013-05-19 07:45:00,
2013-05-19 00:52:00,37.7,33.6,30.23,NW,304,0.0,1.0,85,0.00,,,0.00,Wunderground v.1.15,2013-05-19 07:52:00,
2013-05-19 00:58:00,37.3,33.5,30.23,NW,304,0.0,1.0,86,0.00,,,0.00,Wunderground v.1.15,2013-05-19 07:58:00,
2013-05-19 01:04:00,37.1,33.6,30.23,NW,304,0.0,0.0,87,0.00,,,0.00,Wunderground v.1.15,2013-05-19 08:04:00,
2013-05-19 01:10:00,37.2,33.4,30.23,NW,304,0.0,0.0,86,0.00,,,0.00,Wunderground v.1.15,2013-05-19 08:10:00,
2013-05-19 01:16:00,36.9,33.1,30.24,NW,304,0.0,1.0,86,0.00,,,0.00,Wunderground v.1.15,2013-05-19 08:16:00,
2013-05-19 01:22:00,36.8,33.3,30.24,NW,304,0.0,0.0,87,0.00,,,0.00,Wunderground v.1.15,2013-05-19 08:22:00,
2013-05-19 01:27:00,36.9,33.1,30.23,NW,304,1.0,1.0,86,0.00,,,0.00,Wunderground v.1.15,2013-05-19 08:27:00,
2013-05-19 01:34:00,37.0,33.2,30.24,NW,304,1.0,1.0,86,0.00,,,0.00,Wunderground v.1.15,2013-05-19 08:34:00,
2013-05-19 01:40:00,36.8,32.7,30.24,NW,304,1.0,2.0,85,0.00,,,0.00,Wunderground v.1.15,2013-05-19 08:40:00,
2013-05-19 01:46:00,36.7,32.6,30.24,NW,304,1.0,2.0,85,0.00,,,0.00,Wunderground v.1.15,2013-05-19 08:46:00,
2013-05-19 01:51:00,36.6,32.8,30.24,NW,304,1.0,1.0,86,0.00,,,0.00,Wunderground v.1.15,2013-05-19 08:51:00,
2013-05-19 01:58:00,36.4,32.3,30.24,NW,304,1.0,1.0,85,0.00,,,0.00,Wunderground v.1.15,2013-05-19 08:58:00,
2013-05-19 02:04:00,36.1,32.3,30.24,NW,304,1.0,1.0,86,0.00,,,0.00,Wunderground v.1.15,2013-05-19 09:04:00,
2013-05-19 02:09:00,36.0,32.2,30.24,NW,304,0.0,1.0,86,0.00,,,0.00,Wunderground v.1.15,2013-05-19 09:09:00,
2013-05-19 02:16:00,36.0,32.2,30.24,NW,304,0.0,0.0,86,0.00,,,0.00,Wunderground v.1.15,2013-05-19 09:16:00,
2013-05-19 02:22:00,36.0,32.2,30.25,NW,304,0.0,0.0,86,0.00,,,0.00,Wunderground v.1.15,2013-05-19 09:22:00,
2013-05-19 02:28:00,36.0,32.5,30.25,NW,304,0.0,0.0,87,0.00,,,0.00,Wunderground v.1.15,2013-05-19 09:28:00,
2013-05-19 02:33:00,35.9,32.4,30.25,NW,304,0.0,0.0,87,0.00,,,0.00,Wunderground v.1.15,2013-05-19 09:33:00,
2013-05-19 02:40:00,36.1,32.6,30.25,NW,304,0.0,0.0,87,0.00,,,0.00,Wunderground v.1.15,2013-05-19 09:40:00,
2013-05-19 02:46:00,36.2,32.7,30.25,NW,304,0.0,0.0,87,0.00,,,0.00,Wunderground v.1.15,2013-05-19 09:46:00,
2013-05-19 02:52:00,36.2,32.7,30.25,NW,304,1.0,1.0,87,0.00,,,0.00,Wunderground v.1.15,2013-05-19 09:52:00,
2013-05-19 02:58:00,36.0,32.5,30.25,NW,304,0.0,1.0,87,0.00,,,0.00,Wunderground v.1.15,2013-05-19 09:58:00,
2013-05-19 03:04:00,35.9,32.1,30.25,NW,304,0.0,1.0,86,0.00,,,0.00,Wunderground v.1.15,2013-05-19 10:04:00,
2013-05-19 03:10:00,35.7,32.2,30.25,NW,304,0.0,1.0,87,0.00,,,0.00,Wunderground v.1.15,2013-05-19 10:10:00,
2013-05-19 03:15:00,35.6,32.1,30.26,NW,304,0.0,0.0,87,0.00,,,0.00,Wunderground v.1.15,2013-05-19 10:15:00,
2013-05-19 03:22:00,35.5,32.3,30.26,NW,304,0.0,0.0,88,0.00,,,0.00,Wunderground v.1.15,2013-05-19 10:22:00,
2013-05-19 03:28:00,35.5,32.3,30.26,NW,304,0.0,0.0,88,0.00,,,0.00,Wunderground v.1.15,2013-05-19 10:28:00,
2013-05-19 03:34:00,35.6,32.7,30.26,NW,304,0.0,0.0,89,0.00,,,0.00,Wunderground v.1.15,2013-05-19 10:34:00,
2013-05-19 03:40:00,35.8,32.9,30.26,NW,304,0.0,1.0,89,0.00,,,0.00,Wunderground v.1.15,2013-05-19 10:40:00,
2013-05-19 03:46:00,36.0,33.1,30.26,NW,304,0.0,1.0,89,0.00,,,0.00,Wunderground v.1.15,2013-05-19 10:46:00,
2013-05-19 03:52:00,36.3,33.1,30.26,NW,304,1.0,1.0,88,0.00,,,0.00,Wunderground v.1.15,2013-05-19 10:52:00,
2013-05-19 03:58:00,36.3,33.1,30.26,NW,304,0.0,1.0,88,0.00,,,0.00,Wunderground v.1.15,2013-05-19 10:58:00,
2013-05-19 04:03:00,36.4,33.2,30.26,NW,304,0.0,0.0,88,0.00,,,0.00,Wunderground v.1.15,2013-05-19 11:03:00,
2013-05-19 04:10:00,36.3,33.1,30.27,NW,304,0.0,1.0,88,0.00,,,0.00,Wunderground v.1.15,2013-05-19 11:10:00,
2013-05-19 04:16:00,36.6,33.7,30.27,NW,304,1.0,3.0,89,0.00,,,0.00,Wunderground v.1.15,2013-05-19 11:16:00,
2013-05-19 04:21:00,36.5,32.7,30.27,NW,304,1.0,1.0,86,0.00,,,0.00,Wunderground v.1.15,2013-05-19 11:21:00,
2013-05-19 04:28:00,36.3,32.5,30.27,NW,304,0.0,1.0,86,0.00,,,0.00,Wunderground v.1.15,2013-05-19 11:28:00,
2013-05-19 04:34:00,35.7,31.9,30.27,NW,304,0.0,0.0,86,0.00,,,0.00,Wunderground v.1.15,2013-05-19 11:34:00,
2013-05-19 04:40:00,35.1,31.6,30.27,NW,304,0.0,0.0,87,0.00,,,0.00,Wunderground v.1.15,2013-05-19 11:40:00,
2013-05-19 04:45:00,34.7,31.5,30.28,NW,304,0.0,0.0,88,0.00,,,0.00,Wunderground v.1.15,2013-05-19 11:45:00,
2013-05-19 04:52:00,34.4,31.5,30.28,NW,304,0.0,0.0,89,0.00,,,0.00,Wunderground v.1.15,2013-05-19 11:52:00,
2013-05-19 04:58:00,34.2,31.6,30.28,NW,304,0.0,0.0,90,0.00,,,0.00,Wunderground v.1.15,2013-05-19 11:58:00,
2013-05-19 05:04:00,34.3,31.7,30.28,NW,304,0.0,0.0,90,0.00,,,0.00,Wunderground v.1.15,2013-05-19 12:04:00,
2013-05-19 05:10:00,34.0,31.1,30.28,NW,304,0.0,0.0,89,0.00,,,0.00,Wunderground v.1.15,2013-05-19 12:10:00,
2013-05-19 05:16:00,33.8,31.5,30.29,NW,304,0.0,0.0,91,0.00,,,0.00,Wunderground v.1.15,2013-05-19 12:16:00,
2013-05-19 05:22:00,33.9,31.6,30.29,NW,304,0.0,0.0,91,0.00,,,0.00,Wunderground v.1.15,2013-05-19 12:22:00,
2013-05-19 05:27:00,33.8,30.9,30.29,NW,304,1.0,1.0,89,0.00,,,0.00,Wunderground v.1.15,2013-05-19 12:27:00,
2013-05-19 05:34:00,33.7,31.6,30.29,NW,304,1.0,1.0,92,0.00,,,0.00,Wunderground v.1.15,2013-05-19 12:34:00,
2013-05-19 05:40:00,33.5,31.2,30.28,NW,304,0.0,1.0,91,0.00,,,0.00,Wunderground v.1.15,2013-05-19 12:40:00,
2013-05-19 05:46:00,33.4,31.1,30.29,NW,304,0.0,0.0,91,0.00,,,0.00,Wunderground v.1.15,2013-05-19 12:46:00,
2013-05-19 05:52:00,33.5,31.2,30.29,NW,304,0.0,0.0,91,0.00,,,0.00,Wunderground v.1.15,2013-05-19 12:52:00,
2013-05-19 05:58:00,33.9,31.8,30.29,NW,304,0.0,0.0,92,0.00,,,0.00,Wunderground v.1.15,2013-05-19 12:58:00,
2013-05-19 06:04:00,34.7,32.6,30.29,NW,304,0.0,0.0,92,0.00,,,0.00,Wunderground v.1.15,2013-05-19 13:04:00,
2013-05-19 06:09:00,35.3,32.9,30.29,NW,304,0.0,3.0,91,0.00,,,0.00,Wunderground v.1.15,2013-05-19 13:09:00,
2013-05-19 06:16:00,36.1,33.5,30.29,NW,304,1.0,2.0,90,0.00,,,0.00,Wunderground v.1.15,2013-05-19 13:16:00,
2013-05-19 06:22:00,36.5,33.6,30.29,NW,304,0.0,1.0,89,0.00,,,0.00,Wunderground v.1.15,2013-05-19 13:22:00,
2013-05-19 06:28:00,37.1,33.9,30.29,NW,304,0.0,1.0,88,0.00,,,0.00,Wunderground v.1.15,2013-05-19 13:28:00,
2013-05-19 06:33:00,37.7,34.2,30.30,NW,304,0.0,0.0,87,0.00,,,0.00,Wunderground v.1.15,2013-05-19 13:33:00,
2013-05-19 06:40:00,38.2,34.4,30.30,NW,304,0.0,0.0,86,0.00,,,0.00,Wunderground v.1.15,2013-05-19 13:40:00,
2013-05-19 06:46:00,38.7,34.3,30.30,NW,304,0.0,1.0,84,0.00,,,0.00,Wunderground v.1.15,2013-05-19 13:46:00,
2013-05-19 06:51:00,38.5,33.8,30.30,NW,304,0.0,0.0,83,0.00,,,0.00,Wunderground v.1.15,2013-05-19 13:51:00,
2013-05-19 06:58:00,38.9,34.5,30.30,NW,304,0.0,0.0,84,0.00,,,0.00,Wunderground v.1.15,2013-05-19 13:58:00,
2013-05-19 07:04:00,39.6,35.2,30.30,NW,304,0.0,1.0,84,0.00,,,0.00,Wunderground v.1.15,2013-05-19 14:04:00,
2013-05-19 07:10:00,40.1,35.4,30.30,NW,304,0.0,1.0,83,0.00,,,0.00,Wunderground v.1.15,2013-05-19 14:10:00,
2013-05-19 07:16:00,40.7,35.6,30.30,NW,304,0.0,0.0,82,0.00,,,0.00,Wunderground v.1.15,2013-05-19 14:16:00,
2013-05-19 07:22:00,41.3,36.2,30.30,NW,304,0.0,0.0,82,0.00,,,0.00,Wunderground v.1.15,2013-05-19 14:22:00,
2013-05-19 07:28:00,42.1,37.0,30.30,NW,304,0.0,0.0,82,0.00,,,0.00,Wunderground v.1.15,2013-05-19 14:28:00,
2013-05-19 07:34:00,42.9,37.5,30.30,NW,304,0.0,2.0,81,0.00,,,0.00,Wunderground v.1.15,2013-05-19 14:34:00,
2013-05-19 07:39:00,43.7,37.3,30.30,NW,304,1.0,2.0,78,0.00,,,0.00,Wunderground v.1.15,2013-05-19 14:39:00,
2013-05-19 07:46:00,44.3,37.9,30.31,NW,304,1.0,3.0,78,0.00,,,0.00,Wunderground v.1.15,2013-05-19 14:46:00,
2013-05-19 07:52:00,44.8,38.7,30.31,NW,304,0.0,0.0,79,0.00,,,0.00,Wunderground v.1.15,2013-05-19 14:52:00,
2013-05-19 07:58:00,45.1,38.3,30.31,NW,304,0.0,0.0,77,0.00,,,0.00,Wunderground v.1.15,2013-05-19 14:58:00,
2013-05-19 08:04:00,45.6,38.8,30.31,NW,304,0.0,0.0,77,0.00,,,0.00,Wunderground v.1.15,2013-05-19 15:04:00,
2013-05-19 08:10:00,46.3,38.1,30.31,NW,304,0.0,0.0,73,0.00,,,0.00,Wunderground v.1.15,2013-05-19 15:10:00,
2013-05-19 08:16:00,46.8,38.6,30.31,NW,304,0.0,0.0,73,0.00,,,0.00,Wunderground v.1.15,2013-05-19 15:16:00,
2013-05-19 08:21:00,47.3,38.4,30.31,NW,304,0.0,1.0,71,0.00,,,0.00,Wunderground v.1.15,2013-05-19 15:21:00,
2013-05-19 08:28:00,47.6,38.3,30.31,NW,304,0.0,1.0,70,0.00,,,0.00,Wunderground v.1.15,2013-05-19 15:28:00,
2013-05-19 08:34:00,47.8,38.8,30.31,NW,304,0.0,1.0,71,0.00,,,0.00,Wunderground v.1.15,2013-05-19 15:34:00,
2013-05-19 08:40:00,48.1,39.1,30.31,NW,304,0.0,0.0,71,0.00,,,0.00,Wunderground v.1.15,2013-05-19 15:40:00,
2013-05-19 08:45:00,48.6,38.9,30.31,NW,304,0.0,1.0,69,0.00,,,0.00,Wunderground v.1.15,2013-05-19 15:45:00,
2013-05-19 08:52:00,49.0,39.6,30.31,NW,304,0.0,0.0,70,0.00,,,0.00,Wunderground v.1.15,2013-05-19 15:52:00,
2013-05-19 08:58:00,50.5,40.3,30.31,NW,304,0.0,3.0,68,0.00,,,0.00,Wunderground v.1.15,2013-05-19 15:58:00,
2013-05-19 09:03:00,51.7,39.9,30.31,NW,304,0.0,1.0,64,0.00,,,0.00,Wunderground v.1.15,2013-05-19 16:03:00,
2013-05-19 09:10:00,52.1,40.3,30.31,NW,304,0.0,0.0,64,0.00,,,0.00,Wunderground v.1.15,2013-05-19 16:10:00,
2013-05-19 09:16:00,51.6,39.8,30.31,NW,304,1.0,1.0,64,0.00,,,0.00,Wunderground v.1.15,2013-05-19 16:16:00,
2013-05-19 09:22:00,51.7,40.3,30.31,WNW,298,0.0,1.0,65,0.00,,,0.00,Wunderground v.1.15,2013-05-19 16:22:00,
2013-05-19 09:27:00,51.7,40.3,30.30,WNW,298,0.0,1.0,65,0.00,,,0.00,Wunderground v.1.15,2013-05-19 16:27:00,
2013-05-19 09:34:00,52.1,40.3,30.30,WNW,298,0.0,1.0,64,0.00,,,0.00,Wunderground v.1.15,2013-05-19 16:34:00,
2013-05-19 09:40:00,53.3,40.6,30.30,WNW,298,0.0,0.0,62,0.00,,,0.00,Wunderground v.1.15,2013-05-19 16:40:00,
2013-05-19 09:46:00,54.2,40.2,30.30,WNW,298,1.0,6.0,59,0.00,,,0.00,Wunderground v.1.15,2013-05-19 16:46:00,
2013-05-19 09:52:00,53.8,39.4,30.30,WNW,295,2.0,2.0,58,0.00,,,0.00,Wunderground v.1.15,2013-05-19 16:52:00,
2013-05-19 09:58:00,53.1,40.0,30.30,NW,318,4.0,8.0,61,0.00,,,0.00,Wunderground v.1.15,2013-05-19 16:58:00,
2013-05-19 10:04:00,52.9,39.8,30.30,NW,321,5.0,6.0,61,0.00,,,0.00,Wunderground v.1.15,2013-05-19 17:04:00,
2013-05-19 10:10:00,53.1,40.4,30.29,NNW,329,4.0,4.0,62,0.00,,,0.00,Wunderground v.1.15,2013-05-19 17:10:00,
2013-05-19 10:15:00,53.4,39.9,30.29,NW,322,4.0,4.0,60,0.00,,,0.00,Wunderground v.1.15,2013-05-19 17:15:00,
2013-05-19 10:22:00,53.6,40.0,30.29,NW,319,4.0,6.0,60,0.00,,,0.00,Wunderground v.1.15,2013-05-19 17:22:00,
2013-05-19 10:28:00,54.5,40.9,30.29,NW,321,4.0,6.0,60,0.00,,,0.00,Wunderground v.1.15,2013-05-19 17:28:00,
2013-05-19 10:33:00,55.4,40.4,30.29,NW,326,3.0,4.0,57,0.00,,,0.00,Wunderground v.1.15,2013-05-19 17:33:00,
2013-05-19 10:40:00,55.8,40.8,30.29,NNW,329,2.0,2.0,57,0.00,,,0.00,Wunderground v.1.15,2013-05-19 17:40:00,
2013-05-19 10:46:00,55.8,39.9,30.29,NNW,331,2.0,3.0,55,0.00,,,0.00,Wunderground v.1.15,2013-05-19 17:46:00,
2013-05-19 10:52:00,55.5,39.6,30.29,NNW,331,1.0,1.0,55,0.00,,,0.00,Wunderground v.1.15,2013-05-19 17:52:00,
2013-05-19 10:57:00,55.5,40.0,30.29,NNW,331,1.0,2.0,56,0.00,,,0.00,Wunderground v.1.15,2013-05-19 17:57:00,
2013-05-19 11:04:00,55.5,40.0,30.29,NNW,331,1.0,1.0,56,0.00,,,0.00,Wunderground v.1.15,2013-05-19 18:04:00,
2013-05-19 11:10:00,56.0,40.1,30.29,NNW,336,2.0,3.0,55,0.00,,,0.00,Wunderground v.1.15,2013-05-19 18:10:00,
2013-05-19 11:15:00,55.4,42.6,30.29,NW,323,3.0,10.0,62,0.00,,,0.00,Wunderground v.1.15,2013-05-19 18:15:00,
2013-05-19 11:22:00,53.6,45.2,30.29,NNE,25,4.0,4.0,73,0.00,,,0.00,Wunderground v.1.15,2013-05-19 18:22:00,
2013-05-19 11:28:00,53.0,44.6,30.29,NNE,25,1.0,4.0,73,0.00,,,0.01,Wunderground v.1.15,2013-05-19 18:28:00,
2013-05-19 11:34:00,52.9,44.1,30.28,NE,36,1.0,1.0,72,0.00,,,0.01,Wunderground v.1.15,2013-05-19 18:34:00,
2013-05-19 11:39:00,53.7,43.0,30.28,ENE,72,2.0,4.0,67,0.00,,,0.01,Wunderground v.1.15,2013-05-19 18:39:00,
2013-05-19 11:46:00,54.2,43.1,30.28,NNW,328,4.0,8.0,66,0.00,,,0.01,Wunderground v.1.15,2013-05-19 18:46:00,
2013-05-19 11:52:00,55.5,44.3,30.28,NW,317,3.0,3.0,66,0.00,,,0.01,Wunderground v.1.15,2013-05-19 18:52:00,
2013-05-19 11:58:00,57.0,42.4,30.27,NW,324,2.0,4.0,58,0.00,,,0.01,Wunderground v.1.15,2013-05-19 18:58:00,
2013-05-19 12:03:00,57.8,43.1,30.27,NNW,338,3.0,5.0,58,0.00,,,0.01,Wunderground v.1.15,2013-05-19 19:03:00,
2013-05-19 12:10:00,58.7,44.0,30.27,NNW,332,3.0,9.0,58,0.00,,,0.01,Wunderground v.1.15,2013-05-19 19:10:00,
2013-05-19 12:16:00,59.1,42.9,30.27,North,5,3.0,9.0,55,0.00,,,0.01,Wunderground v.1.15,2013-05-19 19:16:00,
2013-05-19 12:22:00,58.8,42.7,30.27,NNE,22,2.0,5.0,55,0.00,,,0.01,Wunderground v.1.15,2013-05-19 19:22:00,
2013-05-19 12:27:00,57.8,43.1,30.26,ENE,58,2.0,5.0,58,0.00,,,0.01,Wunderground v.1.15,2013-05-19 19:27:00,
2013-05-19 12:34:00,57.3,41.7,30.26,East,92,5.0,5.0,56,0.00,,,0.01,Wunderground v.1.15,2013-05-19 19:34:00,
2013-05-19 12:40:00,57.7,42.6,30.26,East,88,5.0,5.0,57,0.00,,,0.01,Wunderground v.1.15,2013-05-19 19:40:00,
2013-05-19 12:45:00,58.9,41.3,30.25,East,88,3.0,5.0,52,0.00,,,0.01,Wunderground v.1.15,2013-05-19 19:45:00,
2013-05-19 12:52:00,60.4,41.1,30.25,ENE,78,2.0,3.0,49,0.00,,,0.01,Wunderground v.1.15,2013-05-19 19:52:00,
2013-05-19 12:58:00,60.1,40.3,30.25,North,355,2.0,5.0,48,0.00,,,0.01,Wunderground v.1.15,2013-05-19 19:58:00,
2013-05-19 13:04:00,61.1,39.0,30.25,North,360,2.0,7.0,44,0.00,,,0.01,Wunderground v.1.15,2013-05-19 20:04:00,
2013-05-19 13:09:00,60.3,39.4,30.26,NW,324,3.0,8.0,46,0.00,,,0.01,Wunderground v.1.15,2013-05-19 20:09:00,
2013-05-19 13:16:00,59.3,40.7,30.26,WNW,294,3.0,8.0,50,0.00,,,0.01,Wunderground v.1.15,2013-05-19 20:16:00,
2013-05-19 13:22:00,58.9,39.8,30.25,WNW,299,3.0,3.0,49,0.00,,,0.01,Wunderground v.1.15,2013-05-19 20:22:00,
2013-05-19 13:28:00,58.6,40.0,30.25,NNW,346,4.0,4.0,50,0.00,,,0.01,Wunderground v.1.15,2013-05-19 20:28:00,
2013-05-19 13:34:00,61.1,41.8,30.25,NNW,328,3.0,8.0,49,0.00,,,0.01,Wunderground v.1.15,2013-05-19 20:34:00,
2013-05-19 13:40:00,60.9,41.6,30.25,North,11,5.0,5.0,49,0.00,,,0.01,Wunderground v.1.15,2013-05-19 20:40:00,
2013-05-19 13:46:00,61.1,41.8,30.25,NNE,19,6.0,9.0,49,0.00,,,0.01,Wunderground v.1.15,2013-05-19 20:46:00,
2013-05-19 13:51:00,60.0,41.3,30.25,North,9,5.0,10.0,50,0.00,,,0.01,Wunderground v.1.15,2013-05-19 20:51:00,
2013-05-19 13:58:00,60.9,41.1,30.24,NNW,340,6.0,10.0,48,0.00,,,0.01,Wunderground v.1.15,2013-05-19 20:58:00,
2013-05-19 14:04:00,62.0,41.0,30.25,NW,316,5.0,8.0,46,0.00,,,0.01,Wunderground v.1.15,2013-05-19 21:04:00,
2013-05-19 14:10:00,62.1,41.1,30.25,NW,312,6.0,6.0,46,0.00,,,0.01,Wunderground v.1.15,2013-05-19 21:10:00,
2013-05-19 14:15:00,63.3,41.6,30.24,NNW,333,4.0,6.0,45,0.00,,,0.01,Wunderground v.1.15,2013-05-19 21:15:00,
2013-05-19 14:22:00,62.4,39.6,30.24,WNW,296,5.0,8.0,43,0.00,,,0.01,Wunderground v.1.15,2013-05-19 21:22:00,
2013-05-19 14:28:00,61.8,38.4,30.24,NNE,29,6.0,8.0,42,0.00,,,0.01,Wunderground v.1.15,2013-05-19 21:28:00,
2013-05-19 14:34:00,62.4,39.6,30.24,NNW,332,6.0,11.0,43,0.00,,,0.01,Wunderground v.1.15,2013-05-19 21:34:00,
2013-05-19 14:39:00,62.8,40.5,30.24,WNW,301,7.0,7.0,44,0.00,,,0.01,Wunderground v.1.15,2013-05-19 21:39:00,
2013-05-19 14:46:00,63.4,39.3,30.23,NE,40,7.0,7.0,41,0.00,,,0.01,Wunderground v.1.15,2013-05-19 21:46:00,
2013-05-19 14:52:00,63.3,37.9,30.23,NW,307,6.0,6.0,39,0.00,,,0.01,Wunderground v.1.15,2013-05-19 21:52:00,
2013-05-19 14:57:00,64.4,40.2,30.23,NW,317,6.0,6.0,41,0.00,,,0.01,Wunderground v.1.15,2013-05-19 21:57:00,
2013-05-19 15:04:00,63.9,37.8,30.24,NNE,15,6.0,10.0,38,0.00,,,0.01,Wunderground v.1.15,2013-05-19 22:04:00,
2013-05-19 15:10:00,63.6,38.8,30.23,NW,318,5.0,7.0,40,0.00,,,0.01,Wunderground v.1.15,2013-05-19 22:10:00,
2013-05-19 15:16:00,64.3,38.1,30.23,NNW,330,5.0,9.0,38,0.00,,,0.01,Wunderground v.1.15,2013-05-19 22:16:00,
2013-05-19 15:21:00,64.4,37.5,30.23,NW,311,5.0,11.0,37,0.00,,,0.01,Wunderground v.1.15,2013-05-19 22:21:00,
2013-05-19 15:28:00,64.0,36.5,30.23,WNW,298,6.0,11.0,36,0.00,,,0.01,Wunderground v.1.15,2013-05-19 22:28:00,
2013-05-19 15:34:00,63.9,37.1,30.23,WNW,303,6.0,10.0,37,0.00,,,0.01,Wunderground v.1.15,2013-05-19 22:34:00,
2013-05-19 15:40:00,64.2,38.0,30.23,West,267,7.0,7.0,38,0.00,,,0.01,Wunderground v.1.15,2013-05-19 22:40:00,
2013-05-19 15:46:00,64.0,37.9,30.23,SW,235,6.0,8.0,38,0.00,,,0.01,Wunderground v.1.15,2013-05-19 22:46:00,
2013-05-19 15:52:00,64.1,38.0,30.23,NW,326,5.0,10.0,38,0.00,,,0.01,Wunderground v.1.15,2013-05-19 22:52:00,
2013-05-19 15:58:00,62.7,37.4,30.23,NNW,337,8.0,10.0,39,0.00,,,0.01,Wunderground v.1.15,2013-05-19 22:58:00,
2013-05-19 16:03:00,61.7,37.7,30.23,NNW,333,8.0,9.0,41,0.00,,,0.01,Wunderground v.1.15,2013-05-19 23:03:00,
2013-05-19 16:10:00,61.6,37.0,30.23,WNW,289,9.0,12.0,40,0.00,,,0.01,Wunderground v.1.15,2013-05-19 23:10:00,
2013-05-19 16:16:00,62.4,38.4,30.23,WNW,298,8.0,12.0,41,0.00,,,0.01,Wunderground v.1.15,2013-05-19 23:16:00,
2013-05-19 16:22:00,63.1,38.4,30.23,West,259,7.0,10.0,40,0.00,,,0.01,Wunderground v.1.15,2013-05-19 23:22:00,
2013-05-19 16:27:00,63.4,38.6,30.23,WNW,302,8.0,12.0,40,0.00,,,0.01,Wunderground v.1.15,2013-05-19 23:27:00,
2013-05-19 16:34:00,63.0,37.0,30.23,West,276,9.0,15.0,38,0.00,,,0.01,Wunderground v.1.15,2013-05-19 23:34:00,
2013-05-19 16:40:00,63.0,37.6,30.23,NW,307,9.0,9.0,39,0.00,,,0.01,Wunderground v.1.15,2013-05-19 23:40:00,
2013-05-19 16:46:00,62.7,38.0,30.23,NW,309,8.0,11.0,40,0.00,,,0.01,Wunderground v.1.15,2013-05-19 23:46:00,
2013-05-19 16:51:00,63.1,37.7,30.23,NNW,328,8.0,8.0,39,0.00,,,0.01,Wunderground v.1.15,2013-05-19 23:51:00,
2013-05-19 16:58:00,63.7,36.9,30.23,NW,312,7.0,12.0,37,0.00,,,0.01,Wunderground v.1.15,2013-05-19 23:58:00,
2013-05-19 17:04:00,63.9,37.8,30.22,WNW,290,6.0,7.0,38,0.00,,,0.01,Wunderground v.1.15,2013-05-20 00:04:00,
2013-05-19 17:10:00,64.4,38.2,30.22,WNW,291,6.0,9.0,38,0.00,,,0.01,Wunderground v.1.15,2013-05-20 00:10:00,
2013-05-19 17:16:00,63.8,37.7,30.22,WNW,284,7.0,9.0,38,0.00,,,0.01,Wunderground v.1.15,2013-05-20 00:16:00,
2013-05-19 17:22:00,64.1,37.3,30.22,NNW,335,6.0,6.0,37,0.00,,,0.01,Wunderground v.1.15,2013-05-20 00:22:00,
2013-05-19 17:28:00,63.7,38.9,30.22,NE,46,5.0,10.0,40,0.00,,,0.01,Wunderground v.1.15,2013-05-20 00:28:00,
2013-05-19 17:33:00,63.8,37.0,30.22,NNE,19,6.0,6.0,37,0.00,,,0.01,Wunderground v.1.15,2013-05-20 00:33:00,
2013-05-19 17:40:00,63.9,39.1,30.22,NNE,18,5.0,5.0,40,0.00,,,0.01,Wunderground v.1.15,2013-05-20 00:40:00,
2013-05-19 17:46:00,63.8,39.0,30.22,NNE,17,4.0,9.0,40,0.00,,,0.01,Wunderground v.1.15,2013-05-20 00:46:00,
2013-05-19 17:52:00,63.2,37.8,30.22,North,5,5.0,6.0,39,0.00,,,0.01,Wunderground v.1.15,2013-05-20 00:52:00,
2013-05-19 17:58:00,62.8,38.1,30.22,North,5,4.0,6.0,40,0.00,,,0.01,Wunderground v.1.15,2013-05-20 00:58:00,
2013-05-19 18:04:00,61.7,37.7,30.22,ENE,64,4.0,4.0,41,0.00,,,0.01,Wunderground v.1.15,2013-05-20 01:04:00,
2013-05-19 18:10:00,60.8,37.5,30.22,NE,37,3.0,3.0,42,0.00,,,0.01,Wunderground v.1.15,2013-05-20 01:10:00,
2013-05-19 18:15:00,59.8,37.2,30.22,North,360,4.0,4.0,43,0.00,,,0.01,Wunderground v.1.15,2013-05-20 01:15:00,
2013-05-19 18:21:00,59.4,37.5,30.22,NNE,31,4.0,8.0,44,0.00,,,0.01,Wunderground v.1.15,2013-05-20 01:21:00,
2013-05-19 18:28:00,59.6,37.6,30.22,NNE,22,3.0,8.0,44,0.00,,,0.01,Wunderground v.1.15,2013-05-20 01:28:00,
2013-05-19 18:34:00,59.1,36.6,30.22,North,9,3.0,7.0,43,0.00,,,0.01,Wunderground v.1.15,2013-05-20 01:34:00,
2013-05-19 18:39:00,58.7,37.4,30.22,North,5,2.0,2.0,45,0.00,,,0.01,Wunderground v.1.15,2013-05-20 01:39:00,
2013-05-19 18:46:00,58.5,37.2,30.22,NNE,16,3.0,7.0,45,0.00,,,0.01,Wunderground v.1.15,2013-05-20 01:46:00,
2013-05-19 18:52:00,58.7,37.4,30.22,NNE,19,3.0,7.0,45,0.00,,,0.01,Wunderground v.1.15,2013-05-20 01:52:00,
2013-05-19 18:57:00,59.0,37.1,30.22,NNE,22,2.0,7.0,44,0.00,,,0.01,Wunderground v.1.15,2013-05-20 01:57:00,
2013-05-19 19:03:00,59.2,37.3,30.22,NE,37,2.0,5.0,44,0.00,,,0.01,Wunderground v.1.15,2013-05-20 02:03:00,
2013-05-19 19:10:00,58.5,36.6,30.23,NE,38,4.0,5.0,44,0.00,,,0.01,Wunderground v.1.15,2013-05-20 02:10:00,
2013-05-19 19:16:00,58.4,36.6,30.23,North,11,3.0,5.0,44,0.00,,,0.01,Wunderground v.1.15,2013-05-20 02:16:00,
2013-05-19 19:22:00,58.4,36.6,30.23,NNE,22,3.0,3.0,44,0.00,,,0.01,Wunderground v.1.15,2013-05-20 02:22:00,
2013-05-19 19:28:00,58.4,36.6,30.23,NNE,21,2.0,3.0,44,0.00,,,0.01,Wunderground v.1.15,2013-05-20 02:28:00,
2013-05-19 19:34:00,58.1,37.4,30.23,North,5,2.0,6.0,46,0.00,,,0.01,Wunderground v.1.15,2013-05-20 02:34:00,
2013-05-19 19:40:00,57.9,37.2,30.23,NNE,17,3.0,3.0,46,0.00,,,0.01,Wunderground v.1.15,2013-05-20 02:40:00,
2013-05-19 19:45:00,57.5,36.9,30.23,North,11,3.0,5.0,46,0.00,,,0.01,Wunderground v.1.15,2013-05-20 02:45:00,
2013-05-19 19:52:00,57.3,36.7,30.23,NE,37,2.0,5.0,46,0.00,,,0.01,Wunderground v.1.15,2013-05-20 02:52:00,
2013-05-19 19:58:00,57.0,37.0,30.23,NE,55,2.0,5.0,47,0.00,,,0.01,Wunderground v.1.15,2013-05-20 02:58:00,
2013-05-19 20:04:00,56.8,37.3,30.23,NE,55,1.0,2.0,48,0.00,,,0.01,Wunderground v.1.15,2013-05-20 03:04:00,
2013-05-19 20:10:00,56.2,37.3,30.23,NNE,17,2.0,3.0,49,0.00,,,0.01,Wunderground v.1.15,2013-05-20 03:10:00,
2013-05-19 20:16:00,55.5,36.6,30.23,NNE,17,2.0,3.0,49,0.00,,,0.01,Wunderground v.1.15,2013-05-20 03:16:00,
2013-05-19 20:22:00,54.8,36.5,30.23,NNE,17,1.0,3.0,50,0.00,,,0.01,Wunderground v.1.15,2013-05-20 03:22:00,
2013-05-19 20:28:00,54.2,36.5,30.23,NNE,17,1.0,3.0,51,0.00,,,0.01,Wunderground v.1.15,2013-05-20 03:28:00,
2013-05-19 20:33:00,53.8,36.6,30.23,NNE,17,0.0,0.0,52,0.00,,,0.01,Wunderground v.1.15,2013-05-20 03:33:00,
2013-05-19 20:40:00,53.2,36.5,30.23,NNE,17,0.0,0.0,53,0.00,,,0.01,Wunderground v.1.15,2013-05-20 03:40:00,
2013-05-19 20:46:00,52.9,36.7,30.24,NNE,17,0.0,1.0,54,0.00,,,0.01,Wunderground v.1.15,2013-05-20 03:46:00,
2013-05-19 20:51:00,52.4,36.7,30.24,NNE,17,0.0,0.0,55,0.00,,,0.01,Wunderground v.1.15,2013-05-20 03:51:00,
2013-05-19 20:58:00,51.9,37.6,30.24,NNE,17,0.0,0.0,58,0.00,,,0.01,Wunderground v.1.15,2013-05-20 03:58:00,
2013-05-19 21:02:00,51.5,37.2,30.24,NNE,17,0.0,0.0,58,0.00,,,0.01,Wunderground v.1.15,2013-05-20 04:02:00,
2013-05-19 21:06:00,51.1,36.8,30.24,NNE,17,0.0,0.0,58,0.00,,,0.01,Wunderground v.1.15,2013-05-20 04:06:00,
2013-05-19 21:12:00,50.7,36.0,30.24,NNE,17,0.0,0.0,57,0.00,,,0.01,Wunderground v.1.15,2013-05-20 04:12:00,
2013-05-19 21:18:00,50.5,36.3,30.24,NNE,17,0.0,0.0,58,0.00,,,0.01,Wunderground v.1.15,2013-05-20 04:18:00,
2013-05-19 21:24:00,50.1,36.3,30.25,NNE,17,0.0,0.0,59,0.00,,,0.01,Wunderground v.1.15,2013-05-20 04:24:00,
2013-05-19 21:30:00,49.7,36.8,30.25,NNE,17,0.0,0.0,61,0.00,,,0.01,Wunderground v.1.15,2013-05-20 04:30:00,
2013-05-19 21:35:00,49.5,36.2,30.25,NNE,17,0.0,0.0,60,0.00,,,0.01,Wunderground v.1.15,2013-05-20 04:35:00,
2013-05-19 21:42:00,49.3,36.4,30.25,NNE,17,0.0,0.0,61,0.00,,,0.01,Wunderground v.1.15,2013-05-20 04:42:00,
2013-05-19 21:44:00,49.3,36.4,30.25,NNE,17,0.0,0.0,61,0.00,,,0.01,Wunderground v.1.15,2013-05-20 04:44:00,
2013-05-19 21:50:00,48.8,36.4,30.25,NNE,17,0.0,0.0,62,0.00,,,0.01,Wunderground v.1.15,2013-05-20 04:50:00,
2013-05-19 21:56:00,48.5,36.5,30.25,NNE,17,0.0,0.0,63,0.00,,,0.01,Wunderground v.1.15,2013-05-20 04:56:00,
2013-05-19 22:02:00,48.3,36.3,30.25,NNE,17,0.0,0.0,63,0.00,,,0.01,Wunderground v.1.15,2013-05-20 05:02:00,
2013-05-19 22:08:00,48.2,36.6,30.25,NNE,17,0.0,0.0,64,0.00,,,0.01,Wunderground v.1.15,2013-05-20 05:08:00,
2013-05-19 22:14:00,48.2,37.0,30.25,NNE,17,0.0,0.0,65,0.00,,,0.01,Wunderground v.1.15,2013-05-20 05:14:00,
2013-05-19 22:19:00,47.9,37.1,30.25,NNE,17,0.0,0.0,66,0.00,,,0.01,Wunderground v.1.15,2013-05-20 05:19:00,
2013-05-19 22:26:00,47.4,36.6,30.25,NNE,17,0.0,0.0,66,0.00,,,0.01,Wunderground v.1.15,2013-05-20 05:26:00,
2013-05-19 22:32:00,46.8,36.8,30.25,NNE,17,0.0,0.0,68,0.00,,,0.01,Wunderground v.1.15,2013-05-20 05:32:00,
2013-05-19 22:38:00,46.1,36.5,30.26,NNE,17,0.0,0.0,69,0.00,,,0.01,Wunderground v.1.15,2013-05-20 05:38:00,
2013-05-19 22:44:00,45.7,36.5,30.25,NNE,17,0.0,0.0,70,0.00,,,0.01,Wunderground v.1.15,2013-05-20 05:44:00,
2013-05-19 22:50:00,45.6,36.4,30.26,NNE,17,0.0,0.0,70,0.00,,,0.01,Wunderground v.1.15,2013-05-20 05:50:00,
2013-05-19 22:56:00,45.3,36.4,30.26,NNE,17,0.0,0.0,71,0.00,,,0.01,Wunderground v.1.15,2013-05-20 05:56:00,
2013-05-19 23:01:00,44.9,36.4,30.25,NNE,17,0.0,0.0,72,0.00,,,0.01,Wunderground v.1.15,2013-05-20 06:01:00,
2013-05-19 23:08:00,45.0,36.5,30.26,NNE,17,0.0,1.0,72,0.00,,,0.01,Wunderground v.1.15,2013-05-20 06:08:00,
2013-05-19 23:14:00,45.0,36.5,30.25,NNE,17,0.0,0.0,72,0.00,,,0.01,Wunderground v.1.15,2013-05-20 06:14:00,
2013-05-19 23:20:00,44.8,36.7,30.25,NNE,17,0.0,0.0,73,0.00,,,0.01,Wunderground v.1.15,2013-05-20 06:20:00,
2013-05-19 23:26:00,44.5,36.4,30.26,NNE,17,0.0,0.0,73,0.00,,,0.01,Wunderground v.1.15,2013-05-20 06:26:00,
2013-05-19 23:32:00,44.0,36.2,30.26,NNE,17,0.0,1.0,74,0.00,,,0.01,Wunderground v.1.15,2013-05-20 06:32:00,
2013-05-19 23:38:00,43.8,36.4,30.26,NNE,17,1.0,2.0,75,0.00,,,0.01,Wunderground v.1.15,2013-05-20 06:38:00,
2013-05-19 23:43:00,43.5,36.1,30.26,NNE,17,0.0,0.0,75,0.00,,,0.01,Wunderground v.1.15,2013-05-20 06:43:00,
2013-05-19 23:50:00,43.1,35.7,30.25,NNE,17,0.0,0.0,75,0.00,,,0.01,Wunderground v.1.15,2013-05-20 06:50:00,
2013-05-19 23:56:00,42.4,35.7,30.25,NNE,17,0.0,0.0,77,0.00,,,0.01,Wunderground v.1.15,2013-05-20 06:56:00,